createdAt,value
2023-04-29T00:03:46.755Z,8.33
2023-04-29T00:08:10.713Z,9.10
2023-04-29T00:12:34.700Z,8.90
2023-04-29T00:17:00.217Z,9.53
2023-04-29T00:21:24.634Z,8.75
2023-04-29T00:25:48.483Z,8.30
2023-04-29T00:30:12.875Z,7.65
2023-04-29T00:34:38.081Z,8.17
2023-04-29T00:39:02.114Z,7.43
2023-04-29T00:43:26.271Z,7.90
2023-04-29T00:47:50.209Z,8.50
2023-04-29T00:52:16.947Z,8.30
2023-04-29T00:56:42.739Z,7.55
2023-04-29T01:01:07.515Z,7.63
2023-04-29T01:05:31.685Z,7.53
2023-04-29T01:10:05.128Z,7.10
2023-04-29T01:14:29.835Z,7.30
2023-04-29T01:18:57.748Z,7.50
2023-04-29T01:23:29.240Z,8.00
2023-04-29T01:28:02.867Z,6.68
2023-04-29T01:32:35.405Z,7.60
2023-04-29T01:37:11.587Z,7.60
2023-04-29T01:41:45.424Z,7.82
2023-04-29T01:46:20.389Z,7.17
2023-04-29T01:50:46.473Z,7.95
2023-04-29T01:55:09.202Z,7.38
2023-04-29T01:59:37.414Z,8.23
2023-04-29T02:04:24.374Z,7.60
2023-04-29T02:08:42.656Z,7.90
2023-04-29T02:13:01.376Z,8.20
2023-04-29T02:17:23.342Z,7.27
2023-04-29T02:21:43.115Z,5.88
2023-04-29T02:26:01.715Z,7.30
2023-04-29T02:30:22.170Z,7.17
2023-04-29T02:34:49.317Z,7.30
2023-04-29T02:39:15.973Z,8.23
2023-04-29T02:43:49.452Z,7.80
2023-04-29T02:48:13.791Z,7.67
2023-04-29T02:52:41.906Z,8.57
2023-04-29T02:57:05.758Z,7.03
2023-04-29T03:01:30.317Z,8.57
2023-04-29T03:05:55.550Z,8.30
2023-04-29T03:10:20.987Z,8.43
2023-04-29T03:14:45.030Z,8.70
2023-04-29T03:19:10.580Z,9.38
2023-04-29T03:23:34.408Z,8.98
2023-04-29T03:28:00.972Z,9.40
2023-04-29T03:32:25.382Z,10.27
2023-04-29T03:36:49.484Z,10.05
2023-04-29T03:41:13.641Z,9.73
2023-04-29T03:45:38.906Z,9.97
2023-04-29T03:50:04.480Z,10.00
2023-04-29T03:54:28.722Z,9.52
2023-04-29T03:58:52.729Z,10.43
2023-04-29T04:03:19.963Z,10.85
2023-04-29T04:07:44.113Z,10.75
2023-04-29T04:12:31.173Z,11.30
2023-04-29T04:16:55.754Z,10.57
2023-04-29T04:21:22.247Z,11.13
2023-04-29T04:25:56.600Z,10.60
2023-04-29T04:30:58.656Z,10.10
2023-04-29T04:35:23.036Z,9.75
2023-04-29T04:39:50.381Z,10.30
2023-04-29T04:44:15.652Z,10.80
2023-04-29T04:48:58.068Z,9.82
2023-04-29T04:53:24.366Z,9.73
2023-04-29T04:57:54.679Z,9.52
2023-04-29T05:02:18.925Z,9.37
2023-04-29T05:06:43.349Z,9.27
2023-04-29T05:11:07.473Z,8.75
2023-04-29T05:15:33.776Z,9.27
2023-04-29T05:19:59.099Z,8.80
2023-04-29T05:24:23.308Z,8.55
2023-04-29T05:28:47.720Z,7.43
2023-04-29T05:33:14.551Z,7.80
2023-04-29T05:37:40.826Z,7.28
2023-04-29T05:42:27.244Z,6.45
2023-04-29T05:46:51.966Z,6.23
2023-04-29T05:51:18.968Z,6.38
2023-04-29T05:55:45.250Z,6.40
2023-04-29T06:00:10.693Z,6.30
2023-04-29T06:04:42.197Z,6.63
2023-04-29T06:09:28.199Z,7.25
2023-04-29T06:13:58.007Z,7.80
2023-04-29T06:18:22.197Z,6.28
2023-04-29T06:22:46.042Z,7.65
2023-04-29T06:27:11.542Z,6.38
2023-04-29T06:31:35.897Z,5.63
2023-04-29T06:36:01.499Z,5.65
2023-04-29T06:41:01.163Z,5.88
2023-04-29T06:45:54.126Z,5.80
2023-04-29T06:50:21.981Z,5.97
2023-04-29T06:54:45.986Z,6.40
2023-04-29T06:59:12.169Z,6.20
2023-04-29T07:03:37.888Z,5.88
2023-04-29T07:08:02.518Z,5.65
2023-04-29T07:12:26.464Z,5.70
2023-04-29T07:16:55.464Z,5.13
2023-04-29T07:21:21.022Z,5.15
2023-04-29T07:25:45.315Z,5.05
2023-04-29T07:30:10.226Z,5.17
2023-04-29T07:34:34.261Z,5.40
2023-04-29T07:39:00.553Z,4.82
2023-04-29T07:43:24.705Z,5.20
2023-04-29T07:47:49.222Z,5.20
2023-04-29T07:52:13.195Z,5.53
2023-04-29T07:56:39.264Z,5.55
2023-04-29T08:01:08.737Z,6.17
2023-04-29T08:05:33.705Z,6.32
2023-04-29T08:09:58.158Z,6.30
2023-04-29T08:14:23.592Z,7.27
2023-04-29T08:18:47.546Z,7.43
2023-04-29T08:23:12.023Z,7.75
2023-04-29T08:27:36.061Z,8.27
2023-04-29T08:32:01.546Z,8.75
2023-04-29T08:36:25.668Z,8.20
2023-04-29T08:40:49.573Z,8.45
2023-04-29T08:45:17.418Z,7.40
2023-04-29T08:49:43.437Z,6.95
2023-04-29T08:54:07.687Z,7.53
2023-04-29T08:58:35.385Z,6.77
2023-04-29T09:03:01.918Z,7.25
2023-04-29T09:07:28.627Z,7.78
2023-04-29T09:11:52.649Z,7.00
2023-04-29T09:16:16.568Z,6.65
2023-04-29T09:20:40.836Z,6.72
2023-04-29T09:25:15.285Z,6.70
2023-04-29T09:29:39.444Z,6.50
2023-04-29T09:34:03.358Z,6.70
2023-04-29T09:38:27.611Z,7.03
2023-04-29T09:42:56.333Z,7.63
2023-04-29T09:47:31.737Z,6.15
2023-04-29T09:51:57.434Z,6.70
2023-04-29T09:56:21.610Z,5.70
2023-04-29T10:00:54.644Z,6.07
2023-04-29T10:05:19.345Z,5.82
2023-04-29T10:09:43.490Z,5.18
2023-04-29T10:14:13.482Z,5.20
2023-04-29T10:18:42.211Z,5.28
2023-04-29T10:23:07.092Z,5.35
2023-04-29T10:27:35.597Z,5.40
2023-04-29T10:32:01.249Z,4.75
2023-04-29T10:36:30.263Z,4.75
2023-04-29T10:40:55.028Z,5.17
2023-04-29T10:45:23.079Z,5.22
2023-04-29T10:50:03.461Z,5.80
2023-04-29T10:54:29.363Z,5.47
2023-04-29T10:58:53.500Z,5.87
2023-04-29T11:03:47.470Z,6.65
2023-04-29T11:08:13.056Z,6.82
2023-04-29T11:12:38.537Z,7.07
2023-04-29T11:17:04.824Z,7.68
2023-04-29T11:21:29.296Z,9.60
2023-04-29T11:25:53.220Z,8.73
2023-04-29T11:30:19.500Z,10.18
2023-04-29T11:34:43.428Z,10.15
2023-04-29T11:39:07.849Z,9.82
2023-04-29T11:43:32.125Z,10.63
2023-04-29T11:47:57.572Z,10.60
2023-04-29T11:52:21.839Z,10.20
2023-04-29T11:56:46.291Z,10.20
2023-04-29T12:01:10.676Z,9.98
2023-04-29T12:05:36.456Z,10.77
2023-04-29T12:10:00.439Z,10.10
2023-04-29T12:14:28.099Z,10.63
2023-04-29T12:18:56.075Z,10.15
2023-04-29T12:23:23.846Z,10.32
2023-04-29T12:27:47.777Z,9.97
2023-04-29T12:32:19.810Z,9.63
2023-04-29T12:36:44.337Z,9.32
2023-04-29T12:41:13.673Z,9.43
2023-04-29T12:45:37.713Z,8.93
2023-04-29T12:50:03.003Z,8.35
2023-04-29T12:54:29.198Z,7.90
2023-04-29T12:58:58.974Z,7.60
2023-04-29T13:03:23.906Z,6.13
2023-04-29T13:07:48.254Z,6.30
2023-04-29T13:12:12.419Z,6.60
2023-04-29T13:16:38.576Z,6.40
2023-04-29T13:21:04.291Z,5.97
2023-04-29T13:25:28.679Z,5.97
2023-04-29T13:29:52.696Z,5.90
2023-04-29T13:34:18.018Z,8.00
2023-04-29T13:38:43.875Z,7.70
2023-04-29T13:43:09.700Z,8.02
2023-04-29T13:47:42.263Z,7.75
2023-04-29T14:05:48.123Z,7.90
2023-04-29T14:10:14.000Z,7.70
2023-04-29T14:14:41.496Z,6.43
2023-04-29T14:19:09.599Z,6.63
2023-04-29T14:23:33.651Z,6.47
2023-04-29T14:27:58.953Z,5.97
2023-04-29T14:32:26.606Z,6.43
2023-04-29T14:36:51.311Z,5.38
2023-04-29T14:41:21.085Z,5.43
2023-04-29T14:45:46.668Z,5.90
2023-04-29T14:50:12.024Z,5.43
2023-04-29T14:54:36.582Z,5.27
2023-04-29T14:59:04.300Z,5.70
2023-04-29T15:03:30.101Z,5.90
2023-04-29T15:07:54.514Z,6.23
2023-04-29T15:12:22.343Z,5.82
2023-04-29T15:16:46.943Z,6.85
2023-04-29T15:21:12.621Z,5.80
2023-04-29T15:25:36.766Z,6.07
2023-04-29T15:30:00.758Z,6.13
2023-04-29T15:34:24.736Z,5.85
2023-04-29T15:38:50.138Z,6.00
2023-04-29T15:43:15.112Z,5.78
2023-04-29T15:47:39.414Z,5.95
2023-04-29T15:52:05.854Z,5.57
2023-04-29T15:56:31.997Z,6.07
2023-04-29T16:00:56.499Z,6.20
2023-04-29T16:05:20.540Z,6.30
2023-04-29T16:09:46.070Z,6.17
2023-04-29T16:14:11.615Z,6.70
2023-04-29T16:18:35.673Z,6.03
2023-04-29T16:22:59.662Z,6.17
2023-04-29T16:27:23.702Z,6.20
2023-04-29T16:31:49.436Z,6.22
2023-04-29T16:36:15.137Z,5.97
2023-04-29T16:40:39.364Z,6.20
2023-04-29T16:45:04.206Z,6.20
2023-04-29T16:49:31.337Z,5.88
2023-04-29T16:53:55.386Z,5.23
2023-04-29T16:58:19.662Z,5.50
2023-04-29T17:02:45.988Z,5.68
2023-04-29T17:07:13.914Z,5.63
2023-04-29T17:11:37.854Z,5.80
2023-04-29T17:16:01.966Z,5.72
2023-04-29T17:20:26.082Z,5.47
2023-04-29T17:24:51.747Z,5.60
2023-04-29T17:29:15.838Z,5.65
2023-04-29T17:33:40.099Z,5.50
2023-04-29T17:38:04.788Z,5.63
2023-04-29T17:42:32.975Z,5.68
2023-04-29T17:46:57.806Z,5.90
2023-04-29T17:51:22.180Z,6.50
2023-04-29T17:55:49.516Z,5.85
2023-04-29T18:00:19.269Z,6.35
2023-04-29T18:04:44.175Z,6.87
2023-04-29T18:09:11.895Z,6.88
2023-04-29T18:13:39.182Z,7.32
2023-04-29T18:18:06.101Z,7.20
2023-04-29T18:22:34.133Z,6.80
2023-04-29T18:26:59.857Z,7.00
2023-04-29T18:31:26.540Z,6.80
2023-04-29T18:35:55.532Z,7.27
2023-04-29T18:40:20.007Z,6.80
2023-04-29T18:44:45.756Z,7.30
2023-04-29T18:49:16.117Z,7.13
2023-04-29T18:53:44.519Z,8.38
2023-04-29T18:58:10.348Z,7.72
2023-04-29T19:02:34.591Z,7.60
2023-04-29T19:07:00.221Z,7.90
2023-04-29T19:11:19.187Z,8.27
2023-04-29T19:15:43.938Z,8.15
2023-04-29T19:20:10.097Z,8.13
2023-04-29T19:24:36.959Z,8.23
2023-04-29T19:29:02.719Z,7.93
2023-04-29T19:33:26.935Z,8.10
2023-04-29T19:37:54.162Z,7.28
2023-04-29T19:42:18.162Z,7.30
2023-04-29T19:46:46.902Z,7.28
2023-04-29T19:51:21.732Z,7.10
2023-04-29T19:55:45.907Z,6.82
2023-04-29T20:00:11.807Z,7.43
2023-04-29T20:04:40.721Z,7.07
2023-04-29T20:09:05.193Z,7.10
2023-04-29T20:13:29.684Z,7.38
2023-04-29T20:17:53.674Z,7.03
2023-04-29T20:22:21.433Z,6.90
2023-04-29T20:26:45.625Z,6.50
2023-04-29T20:31:09.694Z,6.90
2023-04-29T20:35:35.234Z,6.87
2023-04-29T20:40:00.810Z,6.57
2023-04-29T20:44:25.440Z,6.75
2023-04-29T20:48:49.734Z,6.47
2023-04-29T20:53:17.031Z,6.88
2023-04-29T20:57:42.621Z,7.38
2023-04-29T21:02:06.526Z,7.13
2023-04-29T21:06:31.717Z,7.05
2023-04-29T21:10:55.986Z,7.00
2023-04-29T21:15:21.362Z,6.90
2023-04-29T21:19:45.525Z,6.47
2023-04-29T21:24:09.890Z,6.43
2023-04-29T21:28:34.227Z,6.78
2023-04-29T21:32:59.691Z,7.13
2023-04-29T21:37:33.772Z,6.97
2023-04-29T21:41:59.230Z,7.03
2023-04-29T21:46:23.119Z,6.57
2023-04-29T21:50:48.976Z,6.57
2023-04-29T21:55:13.100Z,7.25
2023-04-29T21:59:37.300Z,6.63
2023-04-29T22:04:04.119Z,6.60
2023-04-29T22:08:29.852Z,6.65
2023-04-29T22:12:54.175Z,6.78
2023-04-29T22:17:18.626Z,6.73
2023-04-29T22:21:43.111Z,6.28
2023-04-29T22:26:09.029Z,6.70
2023-04-29T22:30:33.211Z,6.93
2023-04-29T22:34:59.953Z,7.25
2023-04-29T22:39:24.909Z,6.90
2023-04-29T22:43:52.130Z,7.45
2023-04-29T22:48:16.231Z,7.40
2023-04-29T22:52:40.504Z,7.18
2023-04-29T22:57:05.121Z,6.63
2023-04-29T23:01:31.450Z,6.90
2023-04-29T23:05:59.541Z,6.47
2023-04-29T23:10:23.867Z,6.20
2023-04-29T23:14:51.010Z,6.70
2023-04-29T23:19:16.702Z,6.60
2023-04-29T23:23:41.398Z,6.13
2023-04-29T23:27:59.317Z,5.80
2023-04-29T23:32:24.441Z,5.50
2023-04-29T23:36:49.822Z,5.00
2023-04-29T23:41:14.243Z,5.30
2023-04-29T23:45:38.218Z,4.80
2023-04-29T23:50:02.554Z,4.30
2023-04-29T23:54:28.181Z,4.00
2023-04-29T23:58:52.349Z,3.80
